Time;durP1;ratioP1;P1;durP2;ratioP2;P2;SDS_P1;SDS_P2;PMS_P1;PMS_P2;Temp;Humidity;BMP_temperature;BMP_pressure;BME280_temperature;BME280_humidity;BME280_pressure;Samples;Min_cycle;Max_cycle;Signal;HPM_P1;HPM_P2
2022/11/17 00:00:01;;;;;;;374.23;138.80;;;;;;;11.14;99.26;98474.09;287649;33;8038;-73
2022/11/17 00:00:11;;;;;;;373.87;138.50;;;;;;;11.12;99.00;98476.81;286499;34;1260;-73
2022/11/17 00:00:22;;;;;;;371.25;140.23;;;;;;;11.13;99.39;98483.72;284744;34;9211;-73
2022/11/17 00:02:07;;;;;;;358.49;132.16;;;;;;;11.14;99.36;98474.09;2495115;27;20487;-73
2022/11/17 00:02:17;;;;;;;369.70;142.67;;;;;;;11.14;99.53;98484.56;353188;28;1149;-73
2022/11/17 00:02:28;;;;;;;374.20;145.82;;;;;;;11.13;99.26;98480.25;351784;28;927;-73
2022/11/17 00:02:38;;;;;;;375.93;146.80;;;;;;;11.13;99.76;98482.88;350421;28;1919;-74
2022/11/17 00:02:48;;;;;;;378.77;144.50;;;;;;;11.14;99.52;98479.31;350523;28;934;-74
2022/11/17 00:02:59;;;;;;;374.07;141.27;;;;;;;11.14;99.54;98481.94;350453;28;1226;-74
2022/11/17 00:03:15;;;;;;;375.67;139.23;;;;;;;11.14;99.41;98484.56;349808;28;1323;-73
2022/11/17 00:03:25;;;;;;;375.58;141.80;;;;;;;11.15;99.67;98470.53;349056;28;958;-73
2022/11/17 00:03:36;;;;;;;371.97;143.50;;;;;;;11.15;99.75;98486.25;348807;28;1527;-73
2022/11/17 00:03:49;;;;;;;371.37;142.43;;;;;;;11.13;99.49;98473.25;349588;28;1443;-73
2022/11/17 00:03:59;;;;;;;371.42;137.90;;;;;;;11.15;99.67;98481.84;351713;28;1706;-73
2022/11/17 00:04:10;;;;;;;370.90;137.13;;;;;;;11.15;100.00;98474.00;349022;28;1292;-73
2022/11/17 00:04:20;;;;;;;374.57;139.77;;;;;;;11.15;99.52;98476.63;350362;28;1656;-73
2022/11/17 00:04:31;;;;;;;374.27;139.35;;;;;;;11.15;99.71;98476.63;348955;28;882;-73
2022/11/17 00:04:42;;;;;;;374.30;139.68;;;;;;;11.10;99.61;98472.59;348872;28;1376;-73
2022/11/17 00:04:53;;;;;;;371.58;140.98;;;;;;;11.08;99.89;98471.84;346130;28;1517;-73
2022/11/17 00:05:04;;;;;;;369.50;141.87;;;;;;;11.03;99.79;98469.50;346397;28;879;-73
2022/11/17 00:05:14;;;;;;;370.80;141.55;;;;;;;11.02;100.00;98469.59;346228;28;886;-73
2022/11/17 00:05:24;;;;;;;372.37;142.37;;;;;;;10.98;99.98;98474.19;346310;28;1230;-75
2022/11/17 00:05:35;;;;;;;374.90;142.25;;;;;;;10.97;100.00;98465.47;346360;28;1293;-74
2022/11/17 00:05:46;;;;;;;376.17;143.03;;;;;;;10.95;100.00;98469.97;346101;28;1356;-72
2022/11/17 00:06:02;;;;;;;373.73;140.60;;;;;;;10.94;100.00;98463.06;347538;28;1424;-74
2022/11/17 00:06:12;;;;;;;373.10;139.68;;;;;;;10.95;100.00;98458.66;346071;28;1666;-73
2022/11/17 00:06:23;;;;;;;372.20;137.43;;;;;;;10.96;100.00;98463.81;343453;28;1612;-74
2022/11/17 00:06:33;;;;;;;372.43;138.73;;;;;;;10.96;100.00;98455.94;341329;28;2453;-73
2022/11/17 00:06:43;;;;;;;372.52;140.20;;;;;;;10.96;100.00;98455.94;342490;28;963;-73
2022/11/17 00:06:54;;;;;;;371.33;141.10;;;;;;;10.95;100.00;98459.50;345049;28;865;-73
2022/11/17 00:07:05;;;;;;;366.10;137.00;;;;;;;10.93;100.00;98458.75;347466;28;1666;-73
2022/11/17 00:07:15;;;;;;;366.80;135.53;;;;;;;10.93;100.00;98461.38;344802;28;1275;-73
2022/11/17 00:07:25;;;;;;;371.27;135.65;;;;;;;10.93;100.00;98456.13;343545;28;1180;-73
2022/11/17 00:07:36;;;;;;;374.87;137.63;;;;;;;10.96;100.00;98455.94;344859;28;1203;-73
2022/11/17 00:07:47;;;;;;;377.60;138.33;;;;;;;10.99;100.00;98460.16;343302;28;1494;-73
2022/11/17 00:07:58;;;;;;;375.50;138.82;;;;;;;10.99;100.00;98458.38;342132;28;1413;-73
2022/11/17 00:08:08;;;;;;;373.67;139.18;;;;;;;11.00;100.00;98451.38;343012;28;1516;-73
2022/11/17 00:08:19;;;;;;;369.13;138.57;;;;;;;11.03;100.00;98460.81;342226;28;1248;-73
2022/11/17 00:08:29;;;;;;;371.15;139.13;;;;;;;11.04;100.00;98457.25;342033;28;1031;-73
2022/11/17 00:08:40;;;;;;;372.33;138.60;;;;;;;11.06;100.00;98460.63;342288;28;869;-73
2022/11/17 00:08:51;;;;;;;371.83;139.55;;;;;;;11.06;100.00;98465.84;343417;28;1285;-73
2022/11/17 00:09:01;;;;;;;370.98;135.65;;;;;;;11.05;100.00;98462.41;344945;28;1404;-73
2022/11/17 00:09:16;;;;;;;369.15;135.65;;;;;;;11.05;100.00;98461.56;346197;28;1325;-73
2022/11/17 00:09:26;;;;;;;373.48;136.40;;;;;;;11.04;100.00;98465.09;343365;28;1927;-73
2022/11/17 00:09:37;;;;;;;375.27;138.75;;;;;;;11.03;100.00;98461.66;344932;28;1281;-73
2022/11/17 00:09:47;;;;;;;381.07;142.13;;;;;;;11.05;100.00;98466.78;346358;28;1652;-74
2022/11/17 00:09:57;;;;;;;377.13;141.67;;;;;;;11.05;100.00;98469.41;343408;28;1406;-74
2022/11/17 00:10:08;;;;;;;376.70;138.98;;;;;;;11.05;100.00;98465.00;344810;28;1361;-73
2022/11/17 00:10:18;;;;;;;368.57;139.13;;;;;;;11.06;100.00;98465.84;345660;28;1528;-73
2022/11/17 00:10:29;;;;;;;372.25;141.70;;;;;;;11.06;100.00;98469.31;345042;28;1369;-73
2022/11/17 00:10:39;;;;;;;373.47;143.67;;;;;;;11.06;100.00;98465.84;340691;28;5573;-73
2022/11/17 00:10:49;;;;;;;375.38;143.85;;;;;;;11.07;100.00;98472.78;343912;28;5614;-73
2022/11/17 00:11:03;;;;;;;377.50;145.63;;;;;;;11.06;100.00;98465.84;343330;28;1920;-73
2022/11/17 00:11:13;;;;;;;383.92;146.57;;;;;;;11.07;100.00;98468.38;341612;28;5487;-75
2022/11/17 00:11:24;;;;;;;383.10;145.82;;;;;;;11.09;100.00;98473.53;338091;29;1767;-74
2022/11/17 00:14:31;;;;;;;383.33;142.85;;;;;;;11.10;100.00;98472.59;340463;29;959;-72
2022/11/17 00:14:35;;;;;;;368.98;135.00;;;;;;;11.08;100.00;98480.53;334426;29;2555;-73
2022/11/17 00:14:45;;;;;;;369.35;135.60;;;;;;;11.10;100.00;98483.06;332661;29;2679;-73
2022/11/17 00:14:56;;;;;;;369.87;136.27;;;;;;;11.09;100.00;98487.47;329362;30;1321;-74
2022/11/17 00:15:06;;;;;;;367.90;135.23;;;;;;;11.08;100.00;98480.53;325799;30;1185;-73
2022/11/17 00:15:17;;;;;;;370.85;137.18;;;;;;;11.09;100.00;98481.38;324051;30;2712;-73
2022/11/17 00:15:27;;;;;;;373.13;137.95;;;;;;;11.10;100.00;98483.06;322207;30;1856;-73
2022/11/17 00:15:41;;;;;;;374.60;141.83;;;;;;;11.08;100.00;98477.09;323239;30;1503;-73
2022/11/17 00:15:52;;;;;;;376.80;143.60;;;;;;;11.05;100.00;98480.72;320908;30;921;-73
2022/11/17 00:16:02;;;;;;;373.35;144.73;;;;;;;11.04;100.00;98479.03;323100;30;2161;-73
2022/11/17 00:16:16;;;;;;;371.13;141.40;;;;;;;11.03;100.00;98474.75;320443;30;2522;-73
2022/11/17 00:16:26;;;;;;;369.23;139.15;;;;;;;11.02;100.00;98473.06;316027;31;3191;-73
2022/11/17 00:16:37;;;;;;;372.65;138.55;;;;;;;11.04;100.00;98471.19;313523;31;1573;-74
2022/11/17 00:16:50;;;;;;;372.37;138.10;;;;;;;11.03;100.00;98476.53;315720;31;3543;-73
2022/11/17 00:17:01;;;;;;;373.42;137.68;;;;;;;11.02;100.00;98474.84;318522;30;3416;-73
2022/11/17 00:17:12;;;;;;;368.95;136.75;;;;;;;11.01;100.00;98471.38;318364;30;3224;-73
2022/11/17 00:17:22;;;;;;;366.27;134.93;;;;;;;10.99;100.00;98466.22;318712;30;1616;-73
2022/11/17 00:17:33;;;;;;;365.27;134.70;;;;;;;10.99;100.00;98470.63;317477;30;3343;-73
2022/11/17 00:17:46;;;;;;;368.77;134.43;;;;;;;10.97;100.00;98465.47;316507;31;2314;-73
2022/11/17 00:21:20;;;;;;;371.75;134.10;;;;;;;10.96;100.00;98463.81;299804;32;6323;-73
2022/11/17 00:21:30;;;;;;;370.60;134.43;;;;;;;10.97;100.00;98468.09;299380;32;6064;-73
2022/11/17 00:21:41;;;;;;;369.05;133.25;;;;;;;10.97;100.00;98465.47;299311;32;994;-73
2022/11/17 00:21:51;;;;;;;369.02;132.90;;;;;;;10.98;100.00;98464.53;294208;33;854;-73
2022/11/17 00:22:02;;;;;;;367.57;135.00;;;;;;;11.00;100.00;98467.91;290974;33;6166;-73
2022/11/17 00:22:12;;;;;;;370.48;138.90;;;;;;;11.00;100.00;98465.28;288610;33;5054;-73
2022/11/17 00:22:23;;;;;;;371.53;139.80;;;;;;;11.02;100.00;98465.19;291265;34;875;-73
2022/11/17 00:22:34;;;;;;;375.25;138.02;;;;;;;11.02;100.00;98465.19;289448;33;4531;-73
2022/11/17 00:22:44;;;;;;;378.65;136.98;;;;;;;11.03;100.00;98466.88;288432;33;6367;-73
2022/11/17 00:22:54;;;;;;;379.17;138.47;;;;;;;11.04;100.00;98468.56;290281;34;940;-74
2022/11/17 00:23:05;;;;;;;379.60;141.03;;;;;;;11.06;100.00;98471.09;287099;34;7337;-74
2022/11/17 00:23:15;;;;;;;375.65;141.20;;;;;;;11.06;100.00;98471.09;283531;34;8335;-74
2022/11/17 00:23:45;;;;;;;370.77;140.70;;;;;;;11.06;100.00;98468.47;284449;34;885;-74
2022/11/17 00:23:56;;;;;;;367.88;136.18;;;;;;;11.07;100.00;98467.53;277538;35;935;-74
2022/11/17 00:24:06;;;;;;;362.97;136.17;;;;;;;11.07;100.00;98462.31;277519;35;7490;-73
2022/11/17 00:24:17;;;;;;;366.50;137.15;;;;;;;11.07;100.00;98472.78;277895;35;8540;-73
2022/11/17 00:24:27;;;;;;;368.57;138.50;;;;;;;11.07;100.00;98463.16;279030;35;6596;-75
2022/11/17 00:24:38;;;;;;;372.88;143.80;;;;;;;11.08;100.00;98477.09;277464;35;1029;-74
2022/11/17 00:26:31;;;;;;;363.27;133.70;;;;;;;11.11;99.93;98476.91;2501643;27;20254;-73
2022/11/17 00:27:00;;;;;;;373.90;136.32;;;;;;;11.09;100.00;98477.00;353447;27;959;-73
2022/11/17 00:27:10;;;;;;;375.92;138.35;;;;;;;11.12;100.00;98473.34;350338;28;1282;-73
2022/11/17 00:27:21;;;;;;;374.85;139.05;;;;;;;11.11;100.00;98472.50;348863;28;1871;-73
2022/11/17 00:27:31;;;;;;;371.43;140.33;;;;;;;11.11;100.00;98471.66;349051;28;1170;-73
2022/11/17 00:27:42;;;;;;;369.05;138.48;;;;;;;11.11;100.00;98474.28;348302;28;952;-74
2022/11/17 00:27:52;;;;;;;366.10;136.07;;;;;;;11.11;100.00;98469.03;348946;28;1275;-73
2022/11/17 00:28:02;;;;;;;367.73;134.60;;;;;;;11.11;100.00;98477.75;350235;28;1604;-73
2022/11/17 00:28:13;;;;;;;371.70;135.57;;;;;;;11.10;100.00;98476.06;351603;28;1928;-73
2022/11/17 00:28:23;;;;;;;371.55;138.70;;;;;;;11.10;100.00;98470.81;348897;28;1327;-73
2022/11/17 00:28:34;;;;;;;371.70;141.00;;;;;;;11.12;100.00;98473.34;348955;28;935;-73
2022/11/17 00:28:44;;;;;;;369.58;141.73;;;;;;;11.12;100.00;98468.09;348987;28;1231;-73
2022/11/17 00:28:56;;;;;;;371.60;140.73;;;;;;;11.13;100.00;98472.41;346117;28;3017;-72
2022/11/17 00:29:06;;;;;;;371.13;139.93;;;;;;;11.13;100.00;98468.00;344170;28;5475;-72
2022/11/17 00:29:16;;;;;;;367.40;137.77;;;;;;;11.14;100.00;98474.09;350080;28;2036;-72
2022/11/17 00:29:27;;;;;;;369.83;140.27;;;;;;;11.14;100.00;98471.47;350183;28;2307;-72
2022/11/17 00:29:38;;;;;;;368.15;141.55;;;;;;;11.13;100.00;98472.41;350060;28;5686;-73
2022/11/17 00:29:48;;;;;;;375.07;144.70;;;;;;;11.14;100.00;98474.09;349361;28;1318;-73
2022/11/17 00:29:59;;;;;;;378.27;142.35;;;;;;;11.14;99.82;98471.47;347474;28;1458;-73
2022/11/17 00:34:03;;;;;;;376.23;139.53;;;;;;;11.13;99.98;98470.63;348278;28;865;-73
2022/11/17 00:34:11;;;;;;;367.65;138.00;;;;;;;11.11;100.00;98475.13;338585;29;1003;-74
2022/11/17 00:34:22;;;;;;;369.08;138.15;;;;;;;11.10;100.00;98472.59;335497;29;1633;-73
2022/11/17 00:34:32;;;;;;;371.23;137.87;;;;;;;11.12;100.00;98475.97;334502;29;1113;-73
2022/11/17 00:34:43;;;;;;;370.80;138.90;;;;;;;11.10;100.00;98478.66;336195;29;1381;-73
2022/11/17 00:34:53;;;;;;;373.87;140.70;;;;;;;11.10;100.00;98480.44;337603;29;1989;-73
2022/11/17 00:35:04;;;;;;;373.70;141.23;;;;;;;11.09;100.00;98477.00;337018;29;856;-73
2022/11/17 00:35:15;;;;;;;374.27;140.98;;;;;;;11.10;100.00;98483.06;331889;29;1299;-73
2022/11/17 00:35:25;;;;;;;373.08;139.60;;;;;;;11.10;100.00;98477.81;334416;29;1923;-73
2022/11/17 00:35:35;;;;;;;373.53;140.63;;;;;;;11.10;100.00;98480.44;335455;29;1580;-73
2022/11/17 00:35:52;;;;;;;372.70;139.77;;;;;;;11.09;100.00;98482.22;336959;29;886;-73
2022/11/17 00:36:03;;;;;;;370.85;140.32;;;;;;;11.08;100.00;98482.31;335783;29;940;-73
2022/11/17 00:36:13;;;;;;;370.20;140.63;;;;;;;11.06;100.00;98476.34;334219;29;1621;-72
2022/11/17 00:36:24;;;;;;;367.53;139.03;;;;;;;11.05;100.00;98474.66;334030;29;2045;-72
2022/11/17 00:36:34;;;;;;;370.20;139.35;;;;;;;11.04;100.00;98475.59;331142;29;1835;-73
2022/11/17 00:36:47;;;;;;;369.67;139.52;;;;;;;11.03;100.00;98476.53;333164;29;1025;-73
2022/11/17 00:36:57;;;;;;;371.15;141.18;;;;;;;11.03;100.00;98473.91;334488;29;1942;-73
2022/11/17 00:37:08;;;;;;;376.90;144.68;;;;;;;11.04;100.00;98476.44;332930;29;2105;-73
2022/11/17 00:37:19;;;;;;;377.35;144.52;;;;;;;11.05;100.00;98487.75;328261;29;1420;-73
2022/11/17 00:37:29;;;;;;;371.10;141.90;;;;;;;11.05;100.00;98474.66;325615;30;1462;-73
2022/11/17 00:38:14;;;;;;;372.30;141.70;;;;;;;11.05;100.00;98477.25;324482;30;1629;-73
2022/11/17 00:38:16;;;;;;;374.63;139.55;;;;;;;11.06;100.00;98481.56;320793;30;4433;-73
2022/11/17 00:38:26;;;;;;;378.42;140.50;;;;;;;11.05;100.00;98472.03;323289;30;5551;-73
2022/11/17 00:38:37;;;;;;;381.67;146.70;;;;;;;11.04;100.00;98478.19;321059;30;2067;-73
2022/11/17 00:38:47;;;;;;;379.77;144.73;;;;;;;11.02;100.00;98470.44;319226;30;5888;-73
2022/11/17 00:38:57;;;;;;;381.67;145.38;;;;;;;11.04;100.00;98475.59;316371;31;2634;-73
2022/11/17 00:39:08;;;;;;;375.37;140.67;;;;;;;11.05;100.00;98477.25;318183;30;2536;-74
2022/11/17 00:39:21;;;;;;;370.25;142.88;;;;;;;11.06;100.00;98476.34;321018;30;1060;-74
2022/11/17 00:39:32;;;;;;;370.30;143.23;;;;;;;11.06;100.00;98476.34;316443;31;930;-75
2022/11/17 00:39:42;;;;;;;376.00;144.93;;;;;;;11.06;100.00;98479.78;315157;31;2733;-73
2022/11/17 00:39:52;;;;;;;379.73;146.30;;;;;;;11.05;100.00;98475.50;317181;30;1755;-72
2022/11/17 00:40:04;;;;;;;377.92;144.60;;;;;;;11.06;100.00;98476.34;321492;30;1520;-74
2022/11/17 00:40:14;;;;;;;375.30;141.48;;;;;;;11.05;100.00;98479.88;318662;31;917;-72
2022/11/17 00:40:25;;;;;;;373.25;140.90;;;;;;;11.05;100.00;98479.88;315688;30;2086;-73
2022/11/17 00:40:35;;;;;;;375.30;143.07;;;;;;;11.04;100.00;98473.81;315011;31;2823;-73
2022/11/17 00:40:46;;;;;;;371.08;142.40;;;;;;;11.04;100.00;98478.19;316400;31;965;-73
2022/11/17 00:40:57;;;;;;;370.90;141.50;;;;;;;11.03;100.00;98476.53;313879;31;2817;-73
2022/11/17 00:41:07;;;;;;;368.60;140.82;;;;;;;11.04;100.00;98478.19;313221;31;3437;-73
2022/11/17 00:41:18;;;;;;;372.48;143.82;;;;;;;11.04;100.00;98475.59;311809;31;1251;-73
2022/11/17 00:41:28;;;;;;;372.03;144.30;;;;;;;11.05;100.00;98474.66;310390;31;3258;-73
2022/11/17 00:41:39;;;;;;;373.58;144.38;;;;;;;11.06;100.00;98481.56;311791;31;3615;-72
2022/11/17 00:41:49;;;;;;;374.47;144.23;;;;;;;11.05;100.00;98479.88;312637;31;3232;-72
2022/11/17 00:41:59;;;;;;;373.65;143.55;;;;;;;11.07;100.00;98475.41;319194;30;1210;-72
2022/11/17 00:42:10;;;;;;;372.63;144.90;;;;;;;11.07;100.00;98473.63;315374;31;2483;-72
2022/11/17 00:42:20;;;;;;;371.42;143.02;;;;;;;11.07;100.00;98475.41;316453;30;2166;-72
2022/11/17 00:42:31;;;;;;;373.57;143.43;;;;;;;11.07;100.00;98478.00;316429;31;1094;-73
2022/11/17 00:42:41;;;;;;;376.40;141.50;;;;;;;11.06;100.00;98479.78;316783;30;3249;-73
2022/11/17 00:42:51;;;;;;;379.17;144.48;;;;;;;11.06;100.00;98476.34;314683;31;3449;-73
2022/11/17 00:43:02;;;;;;;379.83;143.60;;;;;;;11.06;100.00;98476.34;313053;31;991;-73
2022/11/17 00:43:12;;;;;;;376.60;142.90;;;;;;;11.05;100.00;98480.72;309527;31;4036;-73
2022/11/17 00:43:22;;;;;;;378.67;141.53;;;;;;;11.04;100.00;98475.59;310356;31;4363;-73
2022/11/17 00:43:33;;;;;;;377.48;142.95;;;;;;;11.04;100.00;98478.19;309638;31;1198;-73
2022/11/17 00:43:43;;;;;;;374.53;142.03;;;;;;;11.04;100.00;98484.28;306861;31;4463;-73
2022/11/17 00:43:54;;;;;;;372.67;142.47;;;;;;;11.03;100.00;98479.13;309568;31;4550;-72
2022/11/17 00:44:04;;;;;;;373.35;142.13;;;;;;;11.03;100.00;98476.53;311310;31;4691;-72
2022/11/17 00:44:15;;;;;;;375.30;140.52;;;;;;;11.03;100.00;98476.53;308593;32;838;-72
2022/11/17 00:44:25;;;;;;;374.27;140.53;;;;;;;11.03;100.00;98479.13;306478;31;3427;-72
2022/11/17 00:44:36;;;;;;;373.25;139.07;;;;;;;11.03;100.00;98476.53;306291;31;3054;-72
2022/11/17 00:44:46;;;;;;;370.13;140.07;;;;;;;11.04;100.00;98475.59;308520;32;1521;-72
2022/11/17 00:44:57;;;;;;;371.45;139.93;;;;;;;11.03;100.00;98476.53;308944;31;4190;-72
2022/11/17 00:45:07;;;;;;;373.57;142.37;;;;;;;11.03;100.00;98481.75;307040;31;4678;-72
2022/11/17 00:45:18;;;;;;;375.98;145.05;;;;;;;11.03;100.00;98481.75;305241;32;1187;-72
2022/11/17 00:45:28;;;;;;;375.60;145.37;;;;;;;11.01;100.00;98468.75;307196;32;5508;-72
2022/11/17 00:45:38;;;;;;;374.42;143.18;;;;;;;11.00;100.00;98474.94;306463;32;5981;-72
2022/11/17 00:45:49;;;;;;;370.67;139.67;;;;;;;10.99;100.00;98474.09;304124;32;1370;-72
2022/11/17 00:45:59;;;;;;;369.35;141.63;;;;;;;10.99;100.00;98481.94;297213;33;1507;-72
2022/11/17 00:46:10;;;;;;;369.13;142.93;;;;;;;11.02;100.00;98474.84;295747;33;6405;-72
2022/11/17 00:46:20;;;;;;;370.13;143.60;;;;;;;11.00;100.00;98475.78;294365;33;6505;-72
2022/11/17 00:46:31;;;;;;;374.43;142.97;;;;;;;11.00;100.00;98475.78;292080;33;1698;-72
2022/11/17 00:46:41;;;;;;;377.95;142.20;;;;;;;11.00;100.00;98477.53;289034;34;4875;-72
2022/11/17 00:46:52;;;;;;;376.60;138.83;;;;;;;11.00;100.00;98472.31;288361;33;4609;-72
2022/11/17 00:47:02;;;;;;;373.75;138.60;;;;;;;11.00;100.00;98477.53;290471;34;1443;-74
2022/11/17 00:47:13;;;;;;;369.37;139.50;;;;;;;11.00;100.00;98473.16;286528;34;6519;-73
2022/11/17 00:47:23;;;;;;;371.33;141.98;;;;;;;11.00;100.00;98473.16;285010;34;7145;-72
2022/11/17 00:47:34;;;;;;;371.00;141.40;;;;;;;10.99;100.00;98471.47;288662;34;5875;-72
2022/11/17 00:47:45;;;;;;;377.30;143.85;;;;;;;10.99;100.00;98474.09;285500;34;921;-74
2022/11/17 00:47:55;;;;;;;377.70;143.27;;;;;;;11.00;100.00;98478.38;286124;34;7949;-73
2022/11/17 00:48:06;;;;;;;375.55;143.38;;;;;;;10.99;100.00;98471.47;284861;34;8754;-74
2022/11/17 00:48:16;;;;;;;373.87;142.67;;;;;;;10.99;100.00;98481.94;289386;34;996;-74
2022/11/17 00:48:26;;;;;;;371.15;142.80;;;;;;;10.99;100.00;98475.88;289497;34;8282;-73
2022/11/17 00:48:37;;;;;;;372.67;144.17;;;;;;;10.98;100.00;98480.25;287305;34;9491;-73
2022/11/17 00:48:47;;;;;;;372.40;143.40;;;;;;;10.98;100.00;98480.25;286402;34;1256;-73
2022/11/17 00:48:58;;;;;;;375.85;145.55;;;;;;;10.98;100.00;98480.25;280595;34;7038;-73
2022/11/17 00:49:09;;;;;;;375.57;143.30;;;;;;;10.97;100.00;98477.72;281748;34;6409;-73
2022/11/17 00:50:56;;;;;;;361.37;133.66;;;;;;;10.96;100.00;98474.28;2496458;27;20258;-73
2022/11/17 00:51:06;;;;;;;372.30;139.27;;;;;;;10.96;100.00;98482.13;353202;28;1124;-73
2022/11/17 00:51:17;;;;;;;370.95;139.07;;;;;;;10.96;100.00;98478.66;351819;28;963;-73
2022/11/17 00:51:27;;;;;;;372.33;140.20;;;;;;;10.95;100.00;98480.44;350194;28;1878;-73
2022/11/17 00:51:38;;;;;;;369.55;139.30;;;;;;;10.95;100.00;98479.59;349025;28;880;-73
2022/11/17 00:51:48;;;;;;;373.47;140.30;;;;;;;10.95;100.00;98480.44;347512;28;1288;-72
2022/11/17 00:51:59;;;;;;;376.67;140.80;;;;;;;10.94;100.00;98478.75;347474;28;1916;-72
2022/11/17 00:52:09;;;;;;;376.63;140.47;;;;;;;10.94;100.00;98476.13;347696;28;974;-73
2022/11/17 00:52:20;;;;;;;372.48;141.27;;;;;;;10.96;100.00;98476.03;349540;28;1432;-73
2022/11/17 00:52:30;;;;;;;365.37;141.57;;;;;;;10.96;100.00;98476.03;351220;28;1812;-73
2022/11/17 00:52:40;;;;;;;364.95;142.57;;;;;;;10.96;100.00;98484.75;349039;28;872;-72
2022/11/17 00:52:51;;;;;;;371.37;139.73;;;;;;;10.96;100.00;98479.50;349703;28;963;-72
2022/11/17 00:53:01;;;;;;;376.83;139.65;;;;;;;10.95;100.00;98485.69;349020;28;1195;-72
2022/11/17 00:53:12;;;;;;;376.10;138.33;;;;;;;10.96;100.00;98476.03;348888;28;1226;-72
2022/11/17 00:53:22;;;;;;;372.47;138.73;;;;;;;10.95;100.00;98480.44;348713;28;1218;-72
2022/11/17 00:53:32;;;;;;;375.17;139.35;;;;;;;10.97;100.00;98477.72;346551;28;861;-72
2022/11/17 00:53:43;;;;;;;373.93;140.27;;;;;;;10.97;100.00;98475.94;348841;28;1455;-76
2022/11/17 00:53:53;;;;;;;374.73;138.52;;;;;;;10.95;100.00;98480.44;347612;28;1554;-73
2022/11/17 00:54:04;;;;;;;368.50;135.80;;;;;;;10.96;100.00;98476.03;347542;28;1651;-73
2022/11/17 00:54:14;;;;;;;371.73;138.50;;;;;;;10.95;100.00;98477.81;346254;28;883;-73
2022/11/17 00:54:25;;;;;;;374.27;140.30;;;;;;;10.96;100.00;98476.88;348881;28;1228;-73
2022/11/17 00:54:36;;;;;;;378.65;142.63;;;;;;;10.95;100.00;98472.59;348807;28;1396;-73
2022/11/17 00:54:47;;;;;;;376.30;142.10;;;;;;;10.95;100.00;98479.59;346336;28;1573;-73
2022/11/17 00:54:57;;;;;;;373.95;142.00;;;;;;;10.94;100.00;98478.75;347583;28;936;-73
2022/11/17 00:55:08;;;;;;;373.77;141.30;;;;;;;10.95;100.00;98480.44;347562;28;951;-73
2022/11/17 00:55:18;;;;;;;373.20;139.55;;;;;;;10.95;100.00;98475.19;347938;28;1107;-72
2022/11/17 00:55:28;;;;;;;371.37;139.13;;;;;;;10.94;100.00;98477.91;348913;28;1284;-73
2022/11/17 00:55:39;;;;;;;373.33;137.02;;;;;;;10.94;100.00;98476.13;349972;28;1173;-74
2022/11/17 00:55:49;;;;;;;371.83;136.77;;;;;;;10.95;100.00;98469.13;350995;28;876;-73
2022/11/17 00:55:59;;;;;;;374.83;137.85;;;;;;;10.95;100.00;98480.44;347537;28;1212;-73
2022/11/17 00:56:10;;;;;;;371.80;140.87;;;;;;;10.95;100.00;98479.59;346281;28;1444;-73
2022/11/17 00:56:20;;;;;;;370.43;140.73;;;;;;;10.95;100.00;98479.59;346258;28;924;-73
2022/11/17 00:56:31;;;;;;;365.45;138.13;;;;;;;10.95;100.00;98475.19;343239;28;4865;-72
2022/11/17 00:56:41;;;;;;;369.13;138.63;;;;;;;10.94;100.00;98473.53;341604;28;2904;-72
2022/11/17 00:56:52;;;;;;;369.53;140.93;;;;;;;10.95;100.00;98475.19;340774;28;3079;-73
2022/11/17 00:57:02;;;;;;;373.57;140.90;;;;;;;10.94;100.00;98478.75;339372;29;2246;-73
2022/11/17 00:57:13;;;;;;;368.50;138.18;;;;;;;10.94;100.00;98476.13;340532;29;3182;-73
2022/11/17 00:57:23;;;;;;;368.57;136.20;;;;;;;10.94;100.00;98475.28;346305;28;1148;-73
2022/11/17 00:57:33;;;;;;;366.97;137.37;;;;;;;10.94;100.00;98477.91;347920;28;1153;-73
2022/11/17 00:57:44;;;;;;;370.43;137.73;;;;;;;10.92;100.00;98483.25;347484;28;1286;-74
2022/11/17 00:57:54;;;;;;;371.77;139.00;;;;;;;10.93;100.00;98482.31;346261;28;928;-73
2022/11/17 00:58:05;;;;;;;373.03;139.57;;;;;;;10.91;100.00;98473.69;343599;28;1215;-73
2022/11/17 00:58:15;;;;;;;371.98;140.80;;;;;;;10.92;100.00;98480.63;346145;28;1227;-73
2022/11/17 00:58:25;;;;;;;371.47;141.10;;;;;;;10.92;100.00;98479.78;344785;28;1659;-73
2022/11/17 00:58:37;;;;;;;374.13;139.65;;;;;;;10.91;100.00;98478.94;344562;28;1249;-73
2022/11/17 00:58:47;;;;;;;378.98;141.10;;;;;;;10.92;100.00;98478.00;340718;28;1139;-74
2022/11/17 00:58:58;;;;;;;380.70;140.95;;;;;;;10.91;100.00;98484.19;338264;29;1870;-74
2022/11/17 00:59:08;;;;;;;378.80;141.40;;;;;;;10.90;100.00;98485.09;336664;29;1305;-73
2022/11/17 00:59:19;;;;;;;376.65;139.77;;;;;;;10.91;100.00;98480.72;337282;29;1682;-73
2022/11/17 00:59:29;;;;;;;374.40;140.83;;;;;;;10.91;100.00;98478.94;338230;29;1448;-74
2022/11/17 00:59:40;;;;;;;374.83;140.98;;;;;;;10.92;100.00;98479.78;336658;29;1518;-73
2022/11/17 00:59:50;;;;;;;371.23;141.00;;;;;;;10.92;100.00;98480.63;336018;29;1918;-73
2022/11/17 01:00:00;;;;;;;371.67;140.27;;;;;;;10.91;100.00;98480.72;336983;29;1973;-73
2022/11/17 01:00:11;;;;;;;370.53;140.33;;;;;;;10.91;100.00;98473.69;338296;29;1071;-73
2022/11/17 01:00:22;;;;;;;374.83;143.40;;;;;;;10.91;100.00;98478.94;336030;29;1306;-73
2022/11/17 01:00:32;;;;;;;371.17;140.23;;;;;;;10.91;100.00;98478.94;335327;29;1906;-74
2022/11/17 01:00:42;;;;;;;369.98;136.45;;;;;;;10.92;100.00;98485.00;331869;29;836;-74
2022/11/17 01:00:53;;;;;;;369.23;135.03;;;;;;;10.90;100.00;98479.88;334544;29;1444;-73
2022/11/17 01:01:03;;;;;;;366.70;136.10;;;;;;;10.92;100.00;98480.63;334135;29;2137;-73
2022/11/17 01:01:14;;;;;;;367.37;136.57;;;;;;;10.91;100.00;98478.09;331948;29;803;-74
2022/11/17 01:01:24;;;;;;;369.35;135.50;;;;;;;10.90;100.00;98477.25;325327;29;1731;-74
2022/11/17 01:01:35;;;;;;;373.27;138.87;;;;;;;10.90;100.00;98477.25;324826;30;2106;-74
2022/11/17 01:01:45;;;;;;;372.45;138.93;;;;;;;10.92;100.00;98479.78;327243;30;2178;-73
2022/11/17 01:01:56;;;;;;;369.77;138.07;;;;;;;10.91;100.00;98476.31;328114;30;868;-74
2022/11/17 01:02:06;;;;;;;370.43;136.97;;;;;;;10.91;100.00;98478.94;328333;30;1834;-74
2022/11/17 01:02:16;;;;;;;370.33;137.93;;;;;;;10.90;100.00;98477.25;330250;29;1882;-74
2022/11/17 01:02:27;;;;;;;373.50;139.35;;;;;;;10.90;100.00;98481.66;329461;30;800;-74
2022/11/17 01:02:37;;;;;;;373.07;141.77;;;;;;;10.90;100.00;98477.25;330053;29;1569;-73
2022/11/17 01:02:48;;;;;;;370.50;140.00;;;;;;;10.92;100.00;98479.78;330654;29;1659;-73
2022/11/17 01:02:58;;;;;;;372.17;140.87;;;;;;;10.90;100.00;98472.03;330658;29;819;-74
2022/11/17 01:03:08;;;;;;;376.17;141.03;;;;;;;10.92;100.00;98478.00;329428;29;2411;-74
2022/11/17 01:03:19;;;;;;;376.05;140.18;;;;;;;10.93;100.00;98471.84;327546;30;1998;-73
2022/11/17 01:03:31;;;;;;;370.43;136.43;;;;;;;10.92;100.00;98470.16;325737;30;1195;-73
2022/11/17 01:03:42;;;;;;;372.60;138.77;;;;;;;10.90;100.00;98477.25;320982;30;936;-73
2022/11/17 01:04:01;;;;;;;373.00;140.18;;;;;;;10.90;100.00;98477.25;319817;30;2857;-73
2022/11/17 01:04:12;;;;;;;369.23;136.73;;;;;;;10.90;100.00;98476.41;319732;30;985;-73
2022/11/17 01:04:23;;;;;;;369.77;137.40;;;;;;;10.88;100.00;98468.66;320303;30;2272;-74
2022/11/17 01:04:33;;;;;;;368.98;140.73;;;;;;;10.89;100.00;98478.19;317707;30;1650;-74
2022/11/17 01:04:44;;;;;;;367.57;141.73;;;;;;;10.88;100.00;98476.50;315030;31;1542;-74